createdAt,value
2023-04-23T00:01:35.528Z,10.60
2023-04-23T00:04:06.235Z,10.40
2023-04-23T00:06:36.051Z,10.10
2023-04-23T00:09:07.221Z,10.00
2023-04-23T00:11:36.186Z,9.80
2023-04-23T00:14:05.280Z,9.60
2023-04-23T00:16:34.031Z,9.90
2023-04-23T00:19:02.510Z,9.90
2023-04-23T00:21:31.668Z,9.30
2023-04-23T00:24:00.469Z,9.40
2023-04-23T00:26:29.156Z,9.50
2023-04-23T00:28:57.628Z,10.10
2023-04-23T00:31:27.608Z,8.60
2023-04-23T00:33:56.678Z,9.10
2023-04-23T00:36:26.230Z,7.90
2023-04-23T00:38:54.867Z,9.00
2023-04-23T00:41:23.783Z,8.20
2023-04-23T00:43:53.471Z,8.80
2023-04-23T00:46:22.828Z,7.70
2023-04-23T00:48:51.458Z,8.30
2023-04-23T00:51:21.481Z,8.60
2023-04-23T00:53:49.860Z,8.20
2023-04-23T00:56:18.921Z,8.60
2023-04-23T00:58:47.749Z,7.80
2023-04-23T01:01:20.887Z,8.80
2023-04-23T01:03:52.927Z,8.10
2023-04-23T01:06:22.380Z,9.10
2023-04-23T01:08:51.708Z,8.90
2023-04-23T01:11:20.399Z,9.10
2023-04-23T01:13:49.290Z,10.20
2023-04-23T01:16:18.221Z,8.30
2023-04-23T01:18:47.385Z,9.60
2023-04-23T01:21:18.522Z,8.90
2023-04-23T01:23:47.024Z,10.30
2023-04-23T01:26:15.638Z,9.90
2023-04-23T01:28:45.928Z,11.00
2023-04-23T01:31:15.132Z,10.00
2023-04-23T01:33:44.722Z,9.60
2023-04-23T01:36:14.204Z,9.90
2023-04-23T01:38:42.712Z,9.30
2023-04-23T01:41:11.526Z,10.10
2023-04-23T01:43:43.020Z,9.50
2023-04-23T01:46:11.755Z,10.60
2023-04-23T01:48:40.851Z,10.40
2023-04-23T01:51:09.635Z,10.70
2023-04-23T01:53:38.103Z,10.00
2023-04-23T01:56:09.971Z,10.90
2023-04-23T01:58:38.838Z,9.80
2023-04-23T02:01:07.848Z,9.20
2023-04-23T02:03:36.296Z,10.00
2023-04-23T02:06:05.532Z,11.60
2023-04-23T02:08:33.933Z,11.40
2023-04-23T02:11:02.290Z,11.00
2023-04-23T02:13:30.979Z,11.40
2023-04-23T02:15:59.805Z,10.40
2023-04-23T02:18:28.179Z,11.60
2023-04-23T02:20:57.852Z,10.80
2023-04-23T02:23:26.425Z,11.60
2023-04-23T02:25:55.049Z,11.90
2023-04-23T02:28:23.615Z,11.00
2023-04-23T02:30:51.947Z,11.80
2023-04-23T02:33:20.491Z,11.80
2023-04-23T02:35:49.058Z,12.20
2023-04-23T02:38:17.869Z,11.30
2023-04-23T02:40:46.428Z,9.50
2023-04-23T02:43:15.220Z,8.60
2023-04-23T02:45:45.037Z,9.00
2023-04-23T02:48:13.520Z,9.40
2023-04-23T02:50:41.996Z,9.80
2023-04-23T02:53:11.400Z,10.30
2023-04-23T02:55:39.881Z,10.10
2023-04-23T02:58:08.365Z,9.80
2023-04-23T03:00:37.543Z,10.60
2023-04-23T03:03:06.778Z,10.90
2023-04-23T03:05:35.348Z,11.10
2023-04-23T03:08:04.029Z,12.90
2023-04-23T03:10:32.440Z,11.70
2023-04-23T03:13:01.102Z,11.30
2023-04-23T03:15:30.707Z,11.80
2023-04-23T03:17:59.582Z,12.00
2023-04-23T03:20:28.694Z,11.40
2023-04-23T03:22:57.739Z,11.20
2023-04-23T03:25:26.328Z,10.70
2023-04-23T03:27:55.341Z,11.10
2023-04-23T03:30:24.362Z,11.00
2023-04-23T03:32:53.505Z,11.30
2023-04-23T03:35:23.171Z,11.00
2023-04-23T03:37:52.995Z,11.70
2023-04-23T03:40:22.360Z,12.30
2023-04-23T03:42:53.638Z,11.80
2023-04-23T03:45:27.746Z,13.00
2023-04-23T03:47:57.165Z,12.60
2023-04-23T03:50:26.098Z,11.90
2023-04-23T03:53:06.355Z,12.60
2023-04-23T03:55:54.881Z,12.40
2023-04-23T03:58:24.086Z,12.50
2023-04-23T04:00:54.605Z,12.60
2023-04-23T04:03:23.336Z,13.10
2023-04-23T04:05:52.838Z,12.70
2023-04-23T04:08:22.691Z,12.40
2023-04-23T04:10:51.484Z,12.90
2023-04-23T04:13:20.271Z,14.00
2023-04-23T04:15:48.780Z,15.10
2023-04-23T04:18:17.645Z,14.10
2023-04-23T04:20:46.422Z,14.40
2023-04-23T04:23:15.122Z,14.50
2023-04-23T04:25:43.809Z,14.10
2023-04-23T04:28:12.510Z,14.50
2023-04-23T04:30:42.819Z,14.60
2023-04-23T04:33:11.504Z,13.50
2023-04-23T04:35:40.090Z,15.40
2023-04-23T04:38:09.090Z,15.20
2023-04-23T04:40:37.564Z,15.40
2023-04-23T04:43:06.764Z,15.40
2023-04-23T04:45:35.345Z,15.50
2023-04-23T04:48:05.062Z,15.40
2023-04-23T04:50:33.437Z,14.20
2023-04-23T04:53:02.327Z,15.20
2023-04-23T04:55:31.426Z,15.00
2023-04-23T04:57:59.801Z,15.40
2023-04-23T05:00:30.351Z,14.20
2023-04-23T05:02:59.752Z,13.80
2023-04-23T05:05:28.536Z,12.80
2023-04-23T05:07:59.491Z,13.50
2023-04-23T05:10:29.592Z,12.50
2023-04-23T05:12:58.182Z,12.80
2023-04-23T05:15:26.906Z,13.60
2023-04-23T05:17:56.415Z,11.90
2023-04-23T05:20:25.461Z,12.00
2023-04-23T05:22:53.748Z,11.60
2023-04-23T05:25:22.530Z,10.90
2023-04-23T05:27:51.052Z,10.40
2023-04-23T05:30:19.712Z,10.20
2023-04-23T05:32:48.628Z,9.70
2023-04-23T05:35:16.974Z,10.50
2023-04-23T05:37:45.663Z,10.60
2023-04-23T05:40:14.450Z,8.80
2023-04-23T05:42:42.823Z,9.70
2023-04-23T05:45:11.720Z,8.60
2023-04-23T05:47:40.336Z,8.30
2023-04-23T05:50:09.402Z,10.70
2023-04-23T05:52:38.181Z,10.90
2023-04-23T05:55:10.059Z,9.30
2023-04-23T05:57:39.057Z,11.10
2023-04-23T06:00:17.967Z,9.50
2023-04-23T06:02:46.620Z,9.70
2023-04-23T06:05:15.650Z,9.20
2023-04-23T06:07:44.647Z,9.70
2023-04-23T06:10:13.537Z,10.00
2023-04-23T06:12:42.428Z,10.90
2023-04-23T06:15:11.732Z,10.70
2023-04-23T06:17:40.313Z,9.90
2023-04-23T06:20:10.948Z,9.70
2023-04-23T06:22:39.523Z,9.40
2023-04-23T06:25:08.664Z,9.20
2023-04-23T06:27:37.309Z,10.20
2023-04-23T06:30:11.700Z,8.10
2023-04-23T06:32:40.648Z,7.70
2023-04-23T06:35:09.599Z,9.90
2023-04-23T06:37:38.098Z,9.30
2023-04-23T06:40:07.722Z,9.60
2023-04-23T06:42:36.423Z,10.00
2023-04-23T06:45:18.987Z,8.50
2023-04-23T06:47:49.604Z,8.40
2023-04-23T06:50:18.126Z,8.40
2023-04-23T06:52:47.228Z,8.50
2023-04-23T06:55:15.581Z,10.00
2023-04-23T06:57:44.297Z,9.70
2023-04-23T07:00:13.656Z,10.10
2023-04-23T07:02:43.456Z,10.20
2023-04-23T07:05:12.202Z,10.70
2023-04-23T07:07:43.643Z,11.00
2023-04-23T07:10:13.565Z,10.40
2023-04-23T07:12:43.501Z,8.30
2023-04-23T07:15:12.754Z,8.40
2023-04-23T07:17:41.884Z,6.40
2023-04-23T07:20:10.611Z,5.90
2023-04-23T07:22:38.944Z,6.10
2023-04-23T07:25:09.158Z,7.10
2023-04-23T07:27:37.575Z,7.50
2023-04-23T07:30:07.391Z,6.70
2023-04-23T07:32:35.781Z,5.50
2023-04-23T07:35:05.320Z,6.20
2023-04-23T07:37:34.126Z,5.70
2023-04-23T07:40:02.858Z,5.40
2023-04-23T07:42:32.463Z,6.00
2023-04-23T07:45:01.093Z,6.30
2023-04-23T07:47:30.079Z,6.00
2023-04-23T07:49:58.641Z,6.50
2023-04-23T07:52:27.323Z,6.20
2023-04-23T07:54:56.431Z,6.20
2023-04-23T07:57:25.001Z,5.30
2023-04-23T07:59:53.487Z,4.70
2023-04-23T08:02:26.604Z,5.10
2023-04-23T08:04:55.815Z,5.70
2023-04-23T08:07:24.367Z,5.50
2023-04-23T08:09:53.070Z,5.90
2023-04-23T08:12:21.969Z,5.80
2023-04-23T08:14:51.320Z,5.60
2023-04-23T08:17:21.077Z,5.70
2023-04-23T08:19:49.942Z,5.10
2023-04-23T08:22:19.368Z,5.90
2023-04-23T08:24:48.857Z,5.40
2023-04-23T08:27:17.449Z,5.50
2023-04-23T08:29:45.919Z,5.00
2023-04-23T08:32:14.921Z,5.00
2023-04-23T08:34:43.449Z,4.30
2023-04-23T08:37:23.244Z,3.90
2023-04-23T08:39:59.293Z,4.20
2023-04-23T08:42:42.329Z,4.10
2023-04-23T08:45:12.228Z,4.50
2023-04-23T08:47:44.813Z,5.00
2023-04-23T08:50:20.341Z,4.60
2023-04-23T08:52:56.652Z,4.40
2023-04-23T08:55:26.470Z,4.30
2023-04-23T08:57:55.160Z,4.60
2023-04-23T09:00:24.257Z,4.50
2023-04-23T09:02:53.548Z,4.30
2023-04-23T09:05:22.650Z,5.20
2023-04-23T09:07:54.122Z,4.60
2023-04-23T09:10:24.171Z,4.30
2023-04-23T09:12:52.938Z,4.90
2023-04-23T09:15:22.633Z,4.60
2023-04-23T09:17:51.651Z,4.70
2023-04-23T09:20:20.130Z,4.30
2023-04-23T09:22:50.835Z,4.30
2023-04-23T09:25:21.350Z,4.00
2023-04-23T09:27:51.751Z,4.00
2023-04-23T09:30:21.084Z,4.30
2023-04-23T09:32:50.135Z,4.10
2023-04-23T09:35:20.432Z,4.10
2023-04-23T09:37:50.537Z,4.40
2023-04-23T09:40:24.747Z,4.00
2023-04-23T09:42:55.078Z,4.20
2023-04-23T09:45:27.140Z,4.10
2023-04-23T09:47:58.106Z,4.00
2023-04-23T09:50:39.448Z,3.30
2023-04-23T09:53:10.199Z,4.20
2023-04-23T09:55:40.098Z,4.40
2023-04-23T09:58:14.098Z,3.90
2023-04-23T10:01:48.034Z,4.00
2023-04-23T10:05:25.995Z,3.70
2023-04-23T10:08:59.974Z,3.70
2023-04-23T10:12:44.596Z,4.40
2023-04-23T10:15:17.400Z,4.00
2023-04-23T10:17:48.671Z,3.90
2023-04-23T10:22:46.895Z,4.20
2023-04-23T10:25:16.337Z,3.90
2023-04-23T10:27:52.990Z,3.90
2023-04-23T10:30:23.629Z,4.10
2023-04-23T10:32:54.387Z,3.70
2023-04-23T10:35:23.132Z,3.80
2023-04-23T10:37:52.625Z,3.60
2023-04-23T10:40:28.167Z,4.00
2023-04-23T10:42:57.160Z,3.50
2023-04-23T10:45:27.169Z,3.80
2023-04-23T10:47:56.548Z,3.50
2023-04-23T10:50:37.740Z,4.00
2023-04-23T10:55:48.021Z,4.00
2023-04-23T10:58:16.624Z,7.40
2023-04-23T11:00:47.070Z,4.40
2023-04-23T11:03:31.627Z,3.40
2023-04-23T11:06:04.723Z,3.60
2023-04-23T11:08:35.754Z,3.80
2023-04-23T11:11:08.845Z,4.00
2023-04-23T11:13:53.502Z,3.70
2023-04-23T11:16:23.839Z,3.50
2023-04-23T11:19:11.695Z,4.00
2023-04-23T11:21:59.794Z,10.70
2023-04-23T11:24:33.492Z,6.60
2023-04-23T11:27:03.065Z,4.00
2023-04-23T11:29:31.613Z,3.60
2023-04-23T11:33:00.582Z,4.00
2023-04-23T11:36:29.003Z,4.00
2023-04-23T11:47:01.051Z,3.90
2023-04-23T11:49:29.979Z,3.60
2023-04-23T11:52:01.020Z,3.80
2023-04-23T11:54:29.926Z,4.00
2023-04-23T11:56:59.718Z,3.20
2023-04-23T11:59:29.590Z,4.00
2023-04-23T12:01:59.878Z,3.60
2023-04-23T12:04:31.090Z,3.70
2023-04-23T12:07:00.679Z,3.30
2023-04-23T12:09:29.754Z,3.60
2023-04-23T12:11:58.824Z,3.60
2023-04-23T12:14:29.438Z,3.70
2023-04-23T12:17:09.352Z,4.30
2023-04-23T12:19:38.641Z,3.70
2023-04-23T12:22:08.762Z,3.40
2023-04-23T12:24:48.793Z,3.70
2023-04-23T12:28:25.293Z,3.80
2023-04-23T12:31:53.904Z,3.60
2023-04-23T12:35:31.050Z,3.60
2023-04-23T12:39:03.362Z,3.50
2023-04-23T12:42:31.773Z,3.80
2023-04-23T12:46:06.044Z,3.80
2023-04-23T12:49:06.928Z,3.50
2023-04-23T12:52:35.416Z,3.60
2023-04-23T12:56:04.057Z,3.50
2023-04-23T12:59:32.410Z,3.60
2023-04-23T13:03:00.772Z,3.70
2023-04-23T13:10:46.847Z,3.70
2023-04-23T13:14:15.010Z,4.60
2023-04-23T13:21:41.978Z,3.50
2023-04-23T13:25:10.361Z,3.40
2023-04-23T13:28:42.114Z,3.40
2023-04-23T13:32:10.325Z,3.40
2023-04-23T13:35:38.807Z,3.60
2023-04-23T13:39:11.198Z,3.70
2023-04-23T13:45:48.029Z,3.70
2023-04-23T13:49:15.768Z,3.40
2023-04-23T13:51:44.560Z,3.40
2023-04-23T13:54:13.245Z,3.10
2023-04-23T13:56:41.834Z,3.50
2023-04-23T13:59:19.436Z,3.60
2023-04-23T14:01:51.553Z,3.50
2023-04-23T14:04:22.828Z,3.30
2023-04-23T14:06:51.548Z,3.50
2023-04-23T14:09:22.703Z,3.20
2023-04-23T14:11:51.125Z,3.50
2023-04-23T14:14:19.757Z,3.20
2023-04-23T14:16:48.281Z,3.40
2023-04-23T14:19:17.294Z,3.50
2023-04-23T14:21:45.970Z,3.80
2023-04-23T14:24:28.122Z,3.20
2023-04-23T14:26:57.113Z,3.10
2023-04-23T14:29:25.903Z,3.10
2023-04-23T14:31:54.661Z,3.30
2023-04-23T14:34:23.287Z,3.30
2023-04-23T14:36:53.463Z,3.40
2023-04-23T14:39:27.201Z,3.10
2023-04-23T14:41:56.649Z,3.10
2023-04-23T14:44:27.150Z,2.80
2023-04-23T14:46:56.239Z,3.30
2023-04-23T14:49:25.392Z,3.10
2023-04-23T14:51:58.543Z,3.40
2023-04-23T14:54:27.314Z,3.30
2023-04-23T14:56:56.640Z,3.10
2023-04-23T14:59:25.128Z,3.40
2023-04-23T15:01:54.122Z,3.20
2023-04-23T15:04:22.682Z,3.20
2023-04-23T15:06:51.375Z,3.30
2023-04-23T15:09:20.065Z,2.90
2023-04-23T15:11:49.181Z,3.10
2023-04-23T15:14:31.108Z,3.20
2023-04-23T15:17:00.260Z,3.30
2023-04-23T15:19:31.496Z,3.20
2023-04-23T15:24:29.282Z,3.80
2023-04-23T15:26:59.663Z,3.30
2023-04-23T15:29:28.605Z,3.30
2023-04-23T15:31:59.043Z,3.00
2023-04-23T15:34:27.844Z,3.30
2023-04-23T15:36:56.427Z,3.50
2023-04-23T15:39:25.198Z,2.90
2023-04-23T15:41:54.217Z,3.10
2023-04-23T15:44:23.915Z,3.20
2023-04-23T15:46:52.798Z,4.30
2023-04-23T15:49:21.387Z,3.90
2023-04-23T15:51:50.073Z,3.60
2023-04-23T15:54:18.553Z,3.60
2023-04-23T15:56:47.058Z,3.70
2023-04-23T15:59:16.109Z,4.10
2023-04-23T16:01:45.037Z,4.10
2023-04-23T16:04:13.632Z,3.70
2023-04-23T16:06:42.394Z,4.10
2023-04-23T16:09:11.218Z,3.70
2023-04-23T16:11:39.981Z,3.90
2023-04-23T16:14:09.998Z,4.00
2023-04-23T16:16:39.191Z,3.90
2023-04-23T16:19:08.250Z,4.20
2023-04-23T16:21:36.654Z,4.00
2023-04-23T16:24:07.842Z,3.70
2023-04-23T16:26:37.710Z,3.90
2023-04-23T16:29:21.366Z,4.70
2023-04-23T16:31:50.983Z,3.80
2023-04-23T16:34:19.363Z,3.90
2023-04-23T16:36:47.851Z,4.50
2023-04-23T16:39:16.736Z,5.00
2023-04-23T16:41:45.526Z,4.80
2023-04-23T16:44:14.014Z,4.80
2023-04-23T16:46:42.456Z,4.30
2023-04-23T16:49:11.075Z,4.60
2023-04-23T16:51:39.782Z,3.80
2023-04-23T16:54:08.450Z,4.10
2023-04-23T16:56:37.750Z,4.40
2023-04-23T16:59:06.586Z,4.20
2023-04-23T17:01:35.048Z,4.10
2023-04-23T17:04:03.718Z,4.50
2023-04-23T17:06:33.239Z,4.50
2023-04-23T17:09:04.916Z,13.70
2023-04-23T17:11:33.565Z,9.00
2023-04-23T17:14:02.256Z,8.00
2023-04-23T17:16:31.416Z,6.20
2023-04-23T17:18:59.928Z,4.60
2023-04-23T17:21:28.664Z,5.10
2023-04-23T17:23:57.411Z,7.60
2023-04-23T17:26:26.722Z,14.50
2023-04-23T17:28:55.186Z,6.30
2023-04-23T17:31:23.920Z,4.60
2023-04-23T17:33:53.809Z,4.20
2023-04-23T17:36:22.482Z,5.00
2023-04-23T17:38:50.977Z,4.50
2023-04-23T17:41:19.446Z,4.90
2023-04-23T17:43:49.456Z,5.40
2023-04-23T17:46:17.995Z,6.30
2023-04-23T17:48:46.949Z,10.90
2023-04-23T17:51:15.444Z,6.60
2023-04-23T17:53:48.532Z,8.10
2023-04-23T17:56:17.409Z,6.60
2023-04-23T17:58:46.197Z,6.70
2023-04-23T18:01:15.977Z,7.30
2023-04-23T18:03:44.904Z,11.00
2023-04-23T18:06:13.791Z,15.50
2023-04-23T18:08:42.810Z,17.80
2023-04-23T18:11:11.451Z,14.70
2023-04-23T18:13:39.955Z,8.60
2023-04-23T18:16:09.405Z,5.40
2023-04-23T18:18:37.983Z,5.10
2023-04-23T18:21:06.538Z,5.00
2023-04-23T18:23:36.155Z,4.60
2023-04-23T18:26:04.696Z,4.80
2023-04-23T18:28:35.054Z,4.30
2023-04-23T18:31:04.748Z,5.20
2023-04-23T18:33:48.566Z,5.10
2023-04-23T18:36:25.480Z,5.00
2023-04-23T18:38:55.234Z,4.80
2023-04-23T18:41:23.987Z,5.00
2023-04-23T18:43:52.588Z,4.70
2023-04-23T18:46:23.264Z,5.10
2023-04-23T18:48:54.136Z,4.90
2023-04-23T18:51:38.400Z,5.30
2023-04-23T18:54:07.252Z,5.00
2023-04-23T18:56:36.082Z,4.90
2023-04-23T18:59:04.591Z,5.20
2023-04-23T19:01:33.396Z,4.90
2023-04-23T19:04:03.577Z,5.60
2023-04-23T19:06:32.764Z,5.20
2023-04-23T19:09:02.001Z,4.80
2023-04-23T19:11:35.267Z,5.20
2023-04-23T19:14:05.125Z,4.80
2023-04-23T19:16:33.892Z,4.70
2023-04-23T19:19:02.986Z,4.90
2023-04-23T19:21:31.957Z,5.50
2023-04-23T19:24:00.563Z,4.90
2023-04-23T19:26:28.922Z,5.20
2023-04-23T19:28:57.605Z,5.10
2023-04-23T19:31:26.198Z,5.30
2023-04-23T19:33:54.775Z,4.90
2023-04-23T19:36:23.632Z,5.60
2023-04-23T19:38:52.249Z,5.20
2023-04-23T19:41:20.836Z,5.10
2023-04-23T19:43:49.634Z,5.10
2023-04-23T19:46:18.050Z,4.90
2023-04-23T19:48:46.800Z,5.20
2023-04-23T19:51:15.689Z,5.50
2023-04-23T19:53:44.284Z,5.00
2023-04-23T19:56:15.320Z,5.10
2023-04-23T19:58:43.897Z,5.90
2023-04-23T20:01:13.389Z,5.70
2023-04-23T20:03:43.362Z,5.40
2023-04-23T20:06:12.628Z,5.70
2023-04-23T20:09:03.944Z,5.80
2023-04-23T20:11:32.732Z,5.20
2023-04-23T20:14:01.722Z,5.50
2023-04-23T20:16:31.071Z,5.60
2023-04-23T20:19:00.033Z,4.80
2023-04-23T20:21:28.699Z,5.90
2023-04-23T20:23:56.979Z,5.80
2023-04-23T20:26:25.426Z,5.80
2023-04-23T20:28:53.950Z,6.20
2023-04-23T20:31:22.567Z,5.40
2023-04-23T20:33:51.256Z,5.40
2023-04-23T20:36:21.236Z,4.70
2023-04-23T20:38:50.541Z,5.10
2023-04-23T20:41:18.920Z,5.10
2023-04-23T20:43:47.543Z,5.00
2023-04-23T20:46:16.673Z,5.70
2023-04-23T20:48:45.198Z,5.10
2023-04-23T20:51:16.022Z,5.00
2023-04-23T20:53:44.400Z,5.30
2023-04-23T20:56:13.295Z,4.90
2023-04-23T20:58:42.396Z,4.80
2023-04-23T21:01:13.994Z,5.00
2023-04-23T21:06:11.666Z,4.80
2023-04-23T21:08:42.974Z,5.00
2023-04-23T21:11:15.954Z,4.60
2023-04-23T21:13:45.060Z,4.80
2023-04-23T21:16:14.156Z,4.60
2023-04-23T21:18:44.179Z,4.70
2023-04-23T21:21:12.665Z,4.80
2023-04-23T21:23:41.874Z,5.10
2023-04-23T21:26:10.519Z,4.90
2023-04-23T21:28:39.129Z,4.90
2023-04-23T21:31:18.416Z,5.30
2023-04-23T21:33:46.845Z,5.20
2023-04-23T21:36:15.227Z,4.60
2023-04-23T21:38:43.916Z,5.50
2023-04-23T21:41:12.284Z,4.70
2023-04-23T21:43:41.092Z,4.70
2023-04-23T21:46:09.636Z,5.00
2023-04-23T21:48:38.622Z,5.00
2023-04-23T21:51:08.072Z,4.50
2023-04-23T21:53:36.822Z,4.70
2023-04-23T21:56:05.860Z,5.00
2023-04-23T21:58:35.601Z,5.00
2023-04-23T22:01:04.591Z,5.40
2023-04-23T22:03:39.095Z,4.90
2023-04-23T22:06:10.014Z,5.00
2023-04-23T22:08:38.600Z,5.20
2023-04-23T22:11:08.458Z,5.40
2023-04-23T22:13:37.418Z,4.70
2023-04-23T22:16:16.439Z,5.20
2023-04-23T22:18:54.207Z,5.10
2023-04-23T22:21:22.865Z,5.00
2023-04-23T22:23:51.314Z,5.50
2023-04-23T22:26:20.200Z,5.50
2023-04-23T22:28:48.890Z,5.90
2023-04-23T22:31:18.668Z,5.30
2023-04-23T22:33:47.458Z,4.90
2023-04-23T22:36:17.035Z,5.30
2023-04-23T22:38:45.899Z,4.80
2023-04-23T22:41:14.571Z,5.70
2023-04-23T22:43:42.969Z,5.90
2023-04-23T22:46:11.776Z,5.60
2023-04-23T22:48:45.155Z,6.10
2023-04-23T22:51:14.239Z,6.00
2023-04-23T22:53:42.521Z,5.90
2023-04-23T22:56:11.511Z,5.50
2023-04-23T22:58:39.982Z,5.70
2023-04-23T23:01:08.556Z,5.50
2023-04-23T23:03:37.637Z,5.60
2023-04-23T23:06:06.352Z,6.00
2023-04-23T23:08:34.737Z,5.40
2023-04-23T23:11:03.906Z,5.90
2023-04-23T23:13:32.823Z,5.60
2023-04-23T23:16:05.017Z,5.80
2023-04-23T23:18:33.581Z,5.60
2023-04-23T23:21:02.266Z,5.40
2023-04-23T23:23:31.366Z,5.30
2023-04-23T23:26:00.188Z,5.50
2023-04-23T23:28:29.157Z,5.20
2023-04-23T23:30:58.259Z,4.90
2023-04-23T23:33:27.459Z,5.10
2023-04-23T23:35:56.747Z,5.20
2023-04-23T23:38:25.616Z,4.50
2023-04-23T23:40:54.122Z,4.90
2023-04-23T23:43:22.707Z,4.90
2023-04-23T23:45:51.866Z,4.60
2023-04-23T23:48:20.485Z,5.00
2023-04-23T23:50:48.969Z,5.30
2023-04-23T23:53:17.559Z,5.20
2023-04-23T23:55:46.028Z,5.00
2023-04-23T23:58:14.836Z,5.10
